MEL weather

Melbourne International Airport
Melbourne, Victoria, Australia

Public forecast

Using degrees Celsius for public forecast. Weather courtesy of forecast.io.

METAR (pilot weather report)

Retrieved 2019/03/20 23:00 UTC (6 minutes ago):

YMML 202300Z 22005KT 9999 SCT012 BKN014 20/17 Q1017 FM0130 19007KT 9999 SCT015 BKN025

TAF (pilot weather forecast)

Retrieved 2019/03/20 18:37 UTC (4 hours ago):

TAF YMML 201703Z 2018/2124 24007KT 9999 -DZ BKN006 FM210000 19007KT 9999 FEW014 BKN025 FM211600 27006KT 9999 BKN008 TEMPO 2018/2024 5000 -DZ BKN004 TEMPO 2100/2103 9999 BKN016 TEMPO 2112/2116 9999 BKN008 PROB30 2018/2021 0500 FG BKN001